createdAt,value
2023-03-02T00:01:36.787Z,22.02
2023-03-02T00:04:06.510Z,19.50
2023-03-02T00:06:35.869Z,22.67
2023-03-02T00:09:05.046Z,24.05
2023-03-02T00:11:35.810Z,24.85
2023-03-02T00:14:02.665Z,25.92
2023-03-02T00:16:29.738Z,27.65
2023-03-02T00:18:56.707Z,25.42
2023-03-02T00:21:24.713Z,23.38
2023-03-02T00:23:53.005Z,24.15
2023-03-02T00:26:20.936Z,21.25
2023-03-02T00:28:47.932Z,18.55
2023-03-02T00:31:14.919Z,20.65
2023-03-02T00:33:41.869Z,21.75
2023-03-02T00:36:19.529Z,20.90
2023-03-02T00:38:46.508Z,20.15
2023-03-02T00:41:15.066Z,20.00
2023-03-02T00:43:42.662Z,17.33
2023-03-02T00:46:11.752Z,18.80
2023-03-02T00:48:38.990Z,20.98
2023-03-02T00:51:07.289Z,19.13
2023-03-02T00:53:35.656Z,19.58
2023-03-02T00:56:03.260Z,19.70
2023-03-02T00:58:31.137Z,18.60
2023-03-02T01:00:59.136Z,20.00
2023-03-02T01:03:26.187Z,18.30
2023-03-02T01:05:56.632Z,20.65
2023-03-02T01:08:25.241Z,20.30
2023-03-02T01:10:54.303Z,21.52
2023-03-02T01:13:21.520Z,21.27
2023-03-02T01:15:48.513Z,21.50
2023-03-02T01:18:15.435Z,21.75
2023-03-02T01:20:42.570Z,22.80
2023-03-02T01:23:09.385Z,23.55
2023-03-02T01:25:36.758Z,22.45
2023-03-02T01:28:03.886Z,22.85
2023-03-02T01:30:30.723Z,24.00
2023-03-02T01:32:57.582Z,18.35
2023-03-02T01:35:24.613Z,16.25
2023-03-02T01:37:51.405Z,13.52
2023-03-02T01:40:18.420Z,14.10
2023-03-02T01:42:57.685Z,14.40
2023-03-02T01:46:09.200Z,14.95
2023-03-02T01:48:50.784Z,17.70
2023-03-02T01:51:21.495Z,15.88
2023-03-02T01:53:54.600Z,19.20
2023-03-02T01:56:27.322Z,19.38
2023-03-02T01:59:02.204Z,21.20
2023-03-02T02:01:50.715Z,21.20
2023-03-02T02:04:18.433Z,23.77
2023-03-02T02:06:52.768Z,19.90
2023-03-02T02:09:22.825Z,20.02
2023-03-02T02:11:52.141Z,17.42
2023-03-02T02:14:19.042Z,18.00
2023-03-02T02:16:46.429Z,17.58
2023-03-02T02:19:27.226Z,15.68
2023-03-02T02:21:54.135Z,14.65
2023-03-02T02:24:57.476Z,14.80
2023-03-02T02:27:30.744Z,16.98
2023-03-02T02:29:58.741Z,14.90
2023-03-02T02:32:34.323Z,13.88
2023-03-02T02:35:19.974Z,13.02
2023-03-02T02:37:55.188Z,14.07
2023-03-02T02:40:51.828Z,12.88
2023-03-02T02:43:21.547Z,15.83
2023-03-02T02:45:52.139Z,18.35
2023-03-02T02:48:24.513Z,18.05
2023-03-02T02:51:00.648Z,16.92
2023-03-02T02:54:01.298Z,16.63
2023-03-02T02:56:37.230Z,17.83
2023-03-02T02:59:14.278Z,17.42
2023-03-02T03:01:41.495Z,19.50
2023-03-02T03:04:14.827Z,19.40
2023-03-02T03:06:52.270Z,18.05
2023-03-02T03:09:19.219Z,18.67
2023-03-02T03:11:50.540Z,17.88
2023-03-02T03:14:23.199Z,17.33
2023-03-02T03:16:51.205Z,16.98
2023-03-02T03:19:28.339Z,14.45
2023-03-02T03:21:58.383Z,12.80
2023-03-02T03:24:27.896Z,14.38
2023-03-02T03:26:58.432Z,13.50
2023-03-02T03:29:27.444Z,12.73
2023-03-02T03:31:56.540Z,15.13
2023-03-02T03:34:25.909Z,13.82
2023-03-02T03:36:53.502Z,15.45
2023-03-02T03:39:21.009Z,15.13
2023-03-02T03:41:47.883Z,14.65
2023-03-02T03:44:14.829Z,12.00
2023-03-02T03:46:41.659Z,12.63
2023-03-02T03:49:08.570Z,13.35
2023-03-02T03:51:35.748Z,12.57
2023-03-02T03:54:08.688Z,11.95
2023-03-02T03:56:42.108Z,12.27
2023-03-02T03:59:12.620Z,11.13
2023-03-02T04:01:46.736Z,11.82
2023-03-02T04:04:20.728Z,11.65
2023-03-02T04:06:47.885Z,12.00
2023-03-02T04:09:15.846Z,11.40
2023-03-02T04:11:44.062Z,9.93
2023-03-02T04:14:11.787Z,10.88
2023-03-02T04:16:39.844Z,11.20
2023-03-02T04:19:11.236Z,10.77
2023-03-02T04:21:45.660Z,11.35
2023-03-02T04:24:14.918Z,10.60
2023-03-02T04:26:43.070Z,10.75
2023-03-02T04:29:11.161Z,10.95
2023-03-02T04:31:38.631Z,10.85
2023-03-02T04:34:06.380Z,11.20
2023-03-02T04:36:36.874Z,10.35
2023-03-02T04:39:05.508Z,10.77
2023-03-02T04:41:32.776Z,9.50
2023-03-02T04:43:59.690Z,9.45
2023-03-02T04:46:27.859Z,9.27
2023-03-02T04:48:55.392Z,9.20
2023-03-02T04:51:27.956Z,15.13
2023-03-02T04:53:58.027Z,8.82
2023-03-02T04:56:25.464Z,8.20
2023-03-02T04:58:52.591Z,9.13
2023-03-02T05:01:20.419Z,8.13
2023-03-02T05:03:47.920Z,8.70
2023-03-02T05:06:15.705Z,8.50
2023-03-02T05:08:43.279Z,8.93
2023-03-02T05:11:22.640Z,8.98
2023-03-02T05:13:55.221Z,7.47
2023-03-02T05:16:24.705Z,7.93
2023-03-02T05:18:51.624Z,8.13
2023-03-02T05:21:19.319Z,7.28
2023-03-02T05:23:46.643Z,8.45
2023-03-02T05:26:14.399Z,8.90
2023-03-02T05:28:43.443Z,8.50
2023-03-02T05:31:24.067Z,9.13
2023-03-02T05:33:50.995Z,8.35
2023-03-02T05:36:19.548Z,9.45
2023-03-02T05:38:47.719Z,8.43
2023-03-02T05:41:14.667Z,8.07
2023-03-02T05:43:42.921Z,8.55
2023-03-02T05:46:09.861Z,8.85
2023-03-02T05:48:37.029Z,8.75
2023-03-02T05:51:04.231Z,8.15
2023-03-02T05:53:31.433Z,8.55
2023-03-02T05:55:58.950Z,8.98
2023-03-02T05:58:25.747Z,8.23
2023-03-02T06:00:52.847Z,7.63
2023-03-02T06:03:19.885Z,8.32
2023-03-02T06:05:52.553Z,9.40
2023-03-02T06:08:21.637Z,8.57
2023-03-02T06:10:50.965Z,9.57
2023-03-02T06:13:18.205Z,9.18
2023-03-02T06:15:45.970Z,8.60
2023-03-02T06:18:13.947Z,8.70
2023-03-02T06:20:42.149Z,10.10
2023-03-02T06:23:09.258Z,12.18
2023-03-02T06:25:37.173Z,12.10
2023-03-02T06:28:04.435Z,9.90
2023-03-02T06:30:31.761Z,11.02
2023-03-02T06:33:00.233Z,9.65
2023-03-02T06:35:27.185Z,10.27
2023-03-02T06:37:54.251Z,9.43
2023-03-02T06:40:21.997Z,10.27
2023-03-02T06:42:48.891Z,10.75
2023-03-02T06:45:16.134Z,11.60
2023-03-02T06:47:42.971Z,9.00
2023-03-02T06:50:11.030Z,8.52
2023-03-02T06:52:38.270Z,9.02
2023-03-02T06:55:05.899Z,9.90
2023-03-02T06:57:35.831Z,12.57
2023-03-02T07:00:18.551Z,12.82
2023-03-02T07:02:45.625Z,12.75
2023-03-02T07:05:13.501Z,12.63
2023-03-02T07:07:40.454Z,10.63
2023-03-02T07:10:08.381Z,11.57
2023-03-02T07:12:36.131Z,12.00
2023-03-02T07:15:04.164Z,12.02
2023-03-02T07:17:31.110Z,12.07
2023-03-02T07:19:58.402Z,10.82
2023-03-02T07:22:27.188Z,12.30
2023-03-02T07:24:54.046Z,12.68
2023-03-02T07:27:20.858Z,11.80
2023-03-02T07:29:47.876Z,12.30
2023-03-02T07:32:15.088Z,11.68
2023-03-02T07:34:42.054Z,11.20
2023-03-02T07:37:10.575Z,14.02
2023-03-02T07:39:37.428Z,14.88
2023-03-02T07:42:04.677Z,14.63
2023-03-02T07:44:32.089Z,15.27
2023-03-02T07:46:59.106Z,16.05
2023-03-02T07:49:26.656Z,9.10
2023-03-02T07:51:56.298Z,8.13
2023-03-02T07:54:26.881Z,12.63
2023-03-02T07:56:53.858Z,9.55
2023-03-02T07:59:21.878Z,8.25
2023-03-02T08:01:49.356Z,7.75
2023-03-02T08:04:16.378Z,7.72
2023-03-02T08:06:43.560Z,8.65
2023-03-02T08:09:10.650Z,9.10
2023-03-02T08:11:37.544Z,8.43
2023-03-02T08:14:04.615Z,8.15
2023-03-02T08:16:31.687Z,10.68
2023-03-02T08:18:59.910Z,8.15
2023-03-02T08:21:28.795Z,9.65
2023-03-02T08:23:55.831Z,9.40
2023-03-02T08:26:23.058Z,8.15
2023-03-02T08:28:50.062Z,6.75
2023-03-02T08:31:17.247Z,6.57
2023-03-02T08:33:46.397Z,6.30
2023-03-02T08:36:17.897Z,9.20
2023-03-02T08:38:45.393Z,8.68
2023-03-02T08:41:19.851Z,10.15
2023-03-02T08:43:47.765Z,6.32
2023-03-02T08:46:16.502Z,6.82
2023-03-02T08:48:44.456Z,6.90
2023-03-02T08:51:17.478Z,7.10
2023-03-02T08:54:02.899Z,4.72
2023-03-02T08:56:33.105Z,4.40
2023-03-02T08:59:03.034Z,4.75
2023-03-02T09:01:32.931Z,5.05
2023-03-02T09:04:01.024Z,3.83
2023-03-02T09:06:30.121Z,3.13
2023-03-02T09:08:57.996Z,3.53
2023-03-02T09:11:25.488Z,3.35
2023-03-02T09:13:52.879Z,3.80
2023-03-02T09:16:20.661Z,3.47
2023-03-02T09:18:48.359Z,3.00
2023-03-02T09:21:15.556Z,3.83
2023-03-02T09:23:42.641Z,3.50
2023-03-02T09:26:09.871Z,4.93
2023-03-02T09:28:37.769Z,3.90
2023-03-02T09:31:07.177Z,3.22
2023-03-02T09:33:34.976Z,3.25
2023-03-02T09:36:10.131Z,3.47
2023-03-02T09:38:37.229Z,7.25
2023-03-02T09:41:20.422Z,3.50
2023-03-02T09:44:09.983Z,3.50
2023-03-02T09:46:50.920Z,4.35
2023-03-02T09:49:35.892Z,3.30
2023-03-02T09:52:08.669Z,3.70
2023-03-02T09:54:38.243Z,5.43
2023-03-02T09:57:23.048Z,4.05
2023-03-02T10:00:19.022Z,3.30
2023-03-02T10:02:47.443Z,3.10
2023-03-02T10:05:29.685Z,8.32
2023-03-02T10:08:00.007Z,6.93
2023-03-02T10:10:37.599Z,5.63
2023-03-02T10:13:36.578Z,4.45
2023-03-02T10:16:24.211Z,6.78
2023-03-02T10:19:12.809Z,6.97
2023-03-02T10:21:43.185Z,2.60
2023-03-02T10:24:46.242Z,4.97
2023-03-02T10:27:18.132Z,3.90
2023-03-02T10:29:51.382Z,4.13
2023-03-02T10:32:30.454Z,3.00
2023-03-02T10:35:02.745Z,4.13
2023-03-02T10:37:31.520Z,3.90
2023-03-02T10:39:58.409Z,3.38
2023-03-02T10:42:38.183Z,4.68
2023-03-02T10:45:31.507Z,4.43
2023-03-02T10:48:07.983Z,3.22
2023-03-02T10:50:35.611Z,2.97
2023-03-02T10:53:09.214Z,5.30
2023-03-02T10:55:36.128Z,4.47
2023-03-02T10:58:21.307Z,3.47
2023-03-02T11:01:18.546Z,4.18
2023-03-02T11:03:57.922Z,5.18
2023-03-02T11:06:25.648Z,5.65
2023-03-02T11:09:19.880Z,4.90
2023-03-02T11:11:56.284Z,3.10
2023-03-02T11:14:25.882Z,2.58
2023-03-02T11:16:53.408Z,3.30
2023-03-02T11:19:41.544Z,4.60
2023-03-02T11:22:23.496Z,3.55
2023-03-02T11:24:56.133Z,4.88
2023-03-02T11:27:29.634Z,3.47
2023-03-02T11:30:04.466Z,3.50
2023-03-02T11:33:00.448Z,3.88
2023-03-02T11:35:53.190Z,5.10
2023-03-02T11:38:26.797Z,4.63
2023-03-02T11:41:03.517Z,6.20
2023-03-02T11:43:30.750Z,5.13
2023-03-02T11:46:10.941Z,3.55
2023-03-02T11:48:47.415Z,4.28
2023-03-02T11:51:23.599Z,4.63
2023-03-02T11:54:03.027Z,3.53
2023-03-02T11:56:33.068Z,5.22
2023-03-02T11:59:05.376Z,6.30
2023-03-02T12:01:35.965Z,5.20
2023-03-02T12:04:26.840Z,3.85
2023-03-02T12:06:54.016Z,4.05
2023-03-02T12:09:23.941Z,4.45
2023-03-02T12:12:17.214Z,5.55
2023-03-02T12:14:44.830Z,5.72
2023-03-02T12:17:27.367Z,5.13
2023-03-02T12:20:08.843Z,5.80
2023-03-02T12:22:37.866Z,3.40
2023-03-02T12:25:27.749Z,4.90
2023-03-02T12:27:56.490Z,8.43
2023-03-02T12:30:27.702Z,8.55
2023-03-02T12:33:20.870Z,9.23
2023-03-02T12:35:50.237Z,7.40
2023-03-02T12:38:27.816Z,6.07
2023-03-02T12:41:03.915Z,6.75
2023-03-02T12:43:34.574Z,5.13
2023-03-02T12:46:16.800Z,5.68
2023-03-02T12:48:58.636Z,4.30
2023-03-02T12:51:50.619Z,4.72
2023-03-02T12:54:21.655Z,4.00
2023-03-02T12:56:49.712Z,4.10
2023-03-02T12:59:28.284Z,4.50
2023-03-02T13:02:11.201Z,4.05
2023-03-02T13:04:38.444Z,4.50
2023-03-02T13:07:07.465Z,5.00
2023-03-02T13:09:36.933Z,5.97
2023-03-02T13:12:05.847Z,5.07
2023-03-02T13:14:33.158Z,7.97
2023-03-02T13:17:05.264Z,6.88
2023-03-02T13:19:34.150Z,5.75
2023-03-02T13:22:01.222Z,6.22
2023-03-02T13:24:46.746Z,6.22
2023-03-02T13:27:20.553Z,7.75
2023-03-02T13:29:48.822Z,7.35
2023-03-02T13:32:28.887Z,7.72
2023-03-02T13:34:59.984Z,9.10
2023-03-02T13:37:41.993Z,9.85
2023-03-02T13:40:34.188Z,13.00
2023-03-02T13:43:01.637Z,10.00
2023-03-02T13:45:30.321Z,14.18
2023-03-02T13:48:03.000Z,13.38
2023-03-02T13:50:32.379Z,10.50
2023-03-02T13:53:06.510Z,12.10
2023-03-02T13:55:34.855Z,9.55
2023-03-02T13:58:02.909Z,15.82
2023-03-02T14:00:34.439Z,11.95
2023-03-02T14:03:02.079Z,9.68
2023-03-02T14:05:35.393Z,9.70
2023-03-02T14:08:07.663Z,11.90
2023-03-02T14:10:34.711Z,11.55
2023-03-02T14:13:19.402Z,10.75
2023-03-02T14:15:53.399Z,10.60
2023-03-02T14:18:26.793Z,14.43
2023-03-02T14:20:53.666Z,13.32
2023-03-02T14:23:20.707Z,13.57
2023-03-02T14:25:49.656Z,13.48
2023-03-02T14:28:33.414Z,10.98
2023-03-02T14:31:00.557Z,11.57
2023-03-02T14:33:28.315Z,11.60
2023-03-02T14:36:02.978Z,9.55
2023-03-02T14:38:30.888Z,10.73
2023-03-02T14:40:58.388Z,10.85
2023-03-02T14:43:25.557Z,11.30
2023-03-02T14:45:53.373Z,9.15
2023-03-02T14:48:20.662Z,10.30
2023-03-02T14:50:53.443Z,17.48
2023-03-02T14:53:28.161Z,10.68
2023-03-02T14:55:55.372Z,12.48
2023-03-02T14:58:31.689Z,12.18
2023-03-02T15:01:00.749Z,10.23
2023-03-02T15:03:28.520Z,9.98
2023-03-02T15:06:01.295Z,9.75
2023-03-02T15:08:29.484Z,8.43
2023-03-02T15:10:56.570Z,9.95
2023-03-02T15:13:23.817Z,11.23
2023-03-02T15:15:52.975Z,10.38
2023-03-02T15:18:20.544Z,10.52
2023-03-02T15:20:47.820Z,10.95
2023-03-02T15:23:14.760Z,10.35
2023-03-02T15:25:43.235Z,8.20
2023-03-02T15:28:11.270Z,9.70
2023-03-02T15:30:38.245Z,6.90
2023-03-02T15:33:08.754Z,6.68
2023-03-02T15:35:41.337Z,7.68
2023-03-02T15:38:27.311Z,11.10
2023-03-02T15:40:54.408Z,9.75
2023-03-02T15:43:24.358Z,8.68
2023-03-02T15:45:51.646Z,7.57
2023-03-02T15:48:18.885Z,7.85
2023-03-02T15:50:56.167Z,13.23
2023-03-02T15:53:23.722Z,11.60
2023-03-02T15:55:51.137Z,12.50
2023-03-02T15:58:19.117Z,17.45
2023-03-02T16:00:46.201Z,16.73
2023-03-02T16:03:14.827Z,12.93
2023-03-02T16:05:42.159Z,15.75
2023-03-02T16:08:09.562Z,13.38
2023-03-02T16:10:37.070Z,11.63
2023-03-02T16:13:07.129Z,9.73
2023-03-02T16:15:40.453Z,12.68
2023-03-02T16:18:08.922Z,12.00
2023-03-02T16:20:39.426Z,15.40
2023-03-02T16:23:10.546Z,15.05
2023-03-02T16:25:40.687Z,15.27
2023-03-02T16:28:08.178Z,14.38
2023-03-02T16:30:35.979Z,14.27
2023-03-02T16:33:06.197Z,10.70
2023-03-02T16:35:37.396Z,11.52
2023-03-02T16:38:05.874Z,10.10
2023-03-02T16:40:33.922Z,12.32
2023-03-02T16:43:01.148Z,11.95
2023-03-02T16:45:28.352Z,10.95
2023-03-02T16:47:55.354Z,11.50
2023-03-02T16:50:22.495Z,10.50
2023-03-02T16:52:49.542Z,9.25
2023-03-02T16:55:19.520Z,9.23
2023-03-02T16:57:46.972Z,9.25
2023-03-02T17:00:19.504Z,9.35
2023-03-02T17:02:47.288Z,10.65
2023-03-02T17:05:16.487Z,12.10
2023-03-02T17:07:43.437Z,12.40
2023-03-02T17:10:14.732Z,10.02
2023-03-02T17:12:41.834Z,11.52
2023-03-02T17:15:13.556Z,10.93
2023-03-02T17:17:41.339Z,10.23
2023-03-02T17:20:11.514Z,14.85
2023-03-02T17:22:39.693Z,14.43
2023-03-02T17:25:07.719Z,12.00
2023-03-02T17:27:35.228Z,16.10
2023-03-02T17:30:02.447Z,12.25
2023-03-02T17:32:29.545Z,16.40
2023-03-02T17:34:56.721Z,17.88
2023-03-02T17:37:26.056Z,16.83
2023-03-02T17:39:53.049Z,17.13
2023-03-02T17:42:20.203Z,13.65
2023-03-02T17:44:47.327Z,12.48
2023-03-02T17:47:18.030Z,13.73
2023-03-02T17:49:45.513Z,11.88
2023-03-02T17:52:13.996Z,12.23
2023-03-02T17:54:42.509Z,12.35
2023-03-02T17:57:10.145Z,10.63
2023-03-02T17:59:38.433Z,10.38
2023-03-02T18:02:05.722Z,11.90
2023-03-02T18:04:32.763Z,12.60
2023-03-02T18:07:02.571Z,14.23
2023-03-02T18:09:29.647Z,15.05
2023-03-02T18:11:56.667Z,12.77
2023-03-02T18:14:28.552Z,12.95
2023-03-02T18:16:55.776Z,12.50
2023-03-02T18:19:23.194Z,11.68
2023-03-02T18:21:50.025Z,12.82
2023-03-02T18:24:16.990Z,12.68
2023-03-02T18:26:44.097Z,11.65
2023-03-02T18:29:11.172Z,11.70
2023-03-02T18:31:38.423Z,13.85
2023-03-02T18:34:05.683Z,13.40
2023-03-02T18:36:32.691Z,12.75
2023-03-02T18:38:59.887Z,13.98
2023-03-02T18:41:28.108Z,15.02
2023-03-02T18:43:55.036Z,12.30
2023-03-02T18:46:28.580Z,13.20
2023-03-02T18:48:56.866Z,12.98
2023-03-02T18:51:25.446Z,14.57
2023-03-02T18:53:53.248Z,14.05
2023-03-02T18:56:22.075Z,17.02
2023-03-02T18:58:50.346Z,17.90
2023-03-02T19:01:17.844Z,17.27
2023-03-02T19:03:46.145Z,16.98
2023-03-02T19:06:14.642Z,16.88
2023-03-02T19:08:42.010Z,17.15
2023-03-02T19:11:09.092Z,17.25
2023-03-02T19:13:36.401Z,16.60
2023-03-02T19:16:04.102Z,16.65
2023-03-02T19:18:31.474Z,17.42
2023-03-02T19:20:58.642Z,17.00
2023-03-02T19:23:26.351Z,18.65
2023-03-02T19:25:53.567Z,19.65
2023-03-02T19:28:21.911Z,19.17
2023-03-02T19:30:49.925Z,19.42
2023-03-02T19:33:18.034Z,19.77
2023-03-02T19:35:45.048Z,21.67
2023-03-02T19:38:12.965Z,21.70
2023-03-02T19:40:40.733Z,21.85
2023-03-02T19:43:07.808Z,21.55
2023-03-02T19:45:36.005Z,20.10
2023-03-02T19:48:04.050Z,21.52
2023-03-02T19:50:31.077Z,20.90
2023-03-02T19:52:59.297Z,22.23
2023-03-02T19:55:27.045Z,19.13
2023-03-02T19:57:59.985Z,20.02
2023-03-02T20:00:29.776Z,19.95
2023-03-02T20:02:57.853Z,20.08
2023-03-02T20:05:27.616Z,20.48
2023-03-02T20:07:55.153Z,22.17
2023-03-02T20:10:37.011Z,19.50
2023-03-02T20:13:06.332Z,21.95
2023-03-02T20:15:38.359Z,20.50
2023-03-02T20:18:08.766Z,20.45
2023-03-02T20:20:36.156Z,20.40
2023-03-02T20:23:04.713Z,18.33
2023-03-02T20:25:31.927Z,18.15
2023-03-02T20:27:58.853Z,22.17
2023-03-02T20:30:37.648Z,15.43
2023-03-02T20:33:07.161Z,18.65
2023-03-02T20:35:40.161Z,16.33
2023-03-02T20:38:20.307Z,21.35
2023-03-02T20:40:47.747Z,17.98
2023-03-02T20:43:15.202Z,16.80
2023-03-02T20:45:42.291Z,21.75
2023-03-02T20:48:10.301Z,22.42
2023-03-02T20:50:37.948Z,22.50
2023-03-02T20:53:06.484Z,18.08
2023-03-02T20:55:33.899Z,17.48
2023-03-02T20:58:01.545Z,18.00
2023-03-02T21:00:32.341Z,20.02
2023-03-02T21:02:59.701Z,23.10
2023-03-02T21:05:27.767Z,17.75
2023-03-02T21:07:55.665Z,16.98
2023-03-02T21:10:30.712Z,16.65
2023-03-02T21:12:57.854Z,17.13
2023-03-02T21:15:27.572Z,18.08
2023-03-02T21:17:55.613Z,20.42
2023-03-02T21:20:25.118Z,16.90
2023-03-02T21:22:51.954Z,17.17
2023-03-02T21:25:19.424Z,16.98
2023-03-02T21:27:46.455Z,17.38
2023-03-02T21:30:19.943Z,15.50
2023-03-02T21:32:48.267Z,16.60
2023-03-02T21:35:20.229Z,16.65
2023-03-02T21:37:49.360Z,17.05
2023-03-02T21:40:21.768Z,15.07
2023-03-02T21:42:49.094Z,16.65
2023-03-02T21:45:16.047Z,16.55
2023-03-02T21:47:43.544Z,16.13
2023-03-02T21:50:15.249Z,18.23
2023-03-02T21:52:42.246Z,18.00
2023-03-02T21:55:10.204Z,18.38
2023-03-02T21:57:37.539Z,17.45
2023-03-02T22:00:05.475Z,17.35
2023-03-02T22:02:33.151Z,17.55
2023-03-02T22:05:00.329Z,20.10
2023-03-02T22:07:28.179Z,20.20
2023-03-02T22:09:55.175Z,20.90
2023-03-02T22:12:23.057Z,19.92
2023-03-02T22:14:53.341Z,20.25
2023-03-02T22:17:24.080Z,22.40
2023-03-02T22:19:52.519Z,21.27
2023-03-02T22:22:26.467Z,22.20
2023-03-02T22:24:54.785Z,21.58
2023-03-02T22:27:29.368Z,20.15
2023-03-02T22:29:59.379Z,20.30
2023-03-02T22:32:29.463Z,22.33
2023-03-02T22:35:02.746Z,20.55
2023-03-02T22:37:34.077Z,19.92
2023-03-02T22:40:07.675Z,21.13
2023-03-02T22:42:34.506Z,23.38
2023-03-02T22:45:16.357Z,23.75
2023-03-02T22:47:48.402Z,24.50
2023-03-02T22:50:27.405Z,24.98
2023-03-02T22:52:56.237Z,21.38
2023-03-02T22:55:42.510Z,21.33
2023-03-02T22:58:27.947Z,20.93
2023-03-02T23:00:55.281Z,21.20
2023-03-02T23:03:28.133Z,20.08
2023-03-02T23:05:55.174Z,21.95
2023-03-02T23:08:30.452Z,19.65
2023-03-02T23:10:59.473Z,20.60
2023-03-02T23:13:38.154Z,21.08
2023-03-02T23:16:24.789Z,20.88
2023-03-02T23:18:54.379Z,22.70
2023-03-02T23:21:28.506Z,20.75
2023-03-02T23:23:55.901Z,23.15
2023-03-02T23:26:22.748Z,21.17
2023-03-02T23:28:50.961Z,21.05
2023-03-02T23:31:18.972Z,23.42
2023-03-02T23:33:46.204Z,23.42
2023-03-02T23:36:14.173Z,21.88
2023-03-02T23:38:41.718Z,20.65
2023-03-02T23:41:09.080Z,19.52
2023-03-02T23:43:36.352Z,20.95
2023-03-02T23:46:03.466Z,20.88
2023-03-02T23:48:35.850Z,20.58
2023-03-02T23:51:02.715Z,20.38
2023-03-02T23:53:33.015Z,20.40
2023-03-02T23:56:00.065Z,21.02
2023-03-02T23:58:26.985Z,20.40
